Historyczne dane pomiarowe

Dodano dane terminowe – wersja testowa.

Dane z okresu 1951-2019

Wersja bazy: 1.34 [2019-03-16, lista zmian], aktualizacja planowana na 2019-04-15

Dane meteo z obszaru Polski uzyskane na podstawie danych udostępnionych przez Instytut Meteorologii i Gospodarki Wodnej – Państwowy Instytut Badawczy.

 

Wybierz Datę:    

       

TemperaturaWilgotnośćWiatrCiśnienieOpadyŚniegCzas trwania zjawisk
 Stacja t tx tn tng RH VA  wxwx mslp ppp RRR   cm mm wxwxwxwxwxwxwx
1983-08-14 14.0 19.5 10.5 5.4-- 2.3 1.3---- 0.0------------
1983-08-13 14.3 19.5 12.1 11.5-- 4.3 2.7---- 3.4------------
1983-08-12 19.6 26.5 13.5 10.9-- 0.0 3.0---- 8.3------------
1983-08-11 20.8 27.8 13.2 10.3-- 1.0 0.0---- 0.0------------
1983-08-10 20.6 26.6 13.5 9.9-- 0.7 1.0---- 0.0------------
1983-08-09 20.1 27.0 14.4 12.4-- 2.7 1.0---- 0.0------------
1983-08-08 18.8 26.6 12.7 12.7-- 6.7 1.0---- 8.2------------
1983-08-07 19.3 25.0 12.9 10.7-- 4.7 2.7---- 0.0------------
1983-08-06 17.1 22.3 12.3 10.9-- 1.7 1.7---- 0.0------------
1983-08-05 14.5 19.1 11.7 10.1-- 5.3 1.7---- 0.0------------
1983-08-04 14.2 19.1 12.7 12.7-- 8.0 3.7---- 5.6------------
1983-08-03 17.6 21.7 16.5 16.0-- 8.0 1.0---- 28.2------------
1983-08-02 21.6 27.2 12.1 15.4-- 3.7 3.3---- 6.0------------
1983-08-01 21.6 30.0 12.3 8.7-- 0.0 3.3---- 0.0------------
1983-07-31 17.4 25.0 8.3 5.2-- 0.3 1.3---- 0.0------------
1983-07-30 16.6 21.1 15.6 14.9-- 5.0 2.7---- 0.0------------
1983-07-29 18.4 25.2 12.9 10.5-- 1.3 2.3---- 0.2------------
1983-07-28 22.4 28.0 18.4 15.6-- 2.3 4.0---- 0.0------------
1983-07-27 23.4 31.8 13.3 10.7-- 0.0 0.7---- 0.0------------
1983-07-26 21.0 28.8 13.2 10.9-- 0.0 1.7---- 0.0------------
1983-07-25 16.6 23.3 7.4 5.8-- 2.7 1.3---- 0.0------------
1983-07-24 16.0 19.7 13.9 10.9-- 5.7 0.7---- 5.9------------
1983-07-23 17.3 22.5 13.5 11.1-- 3.7 2.3---- 0.0------------
1983-07-22 16.4 21.7 9.7 6.4-- 4.3 3.0---- 0.0------------
1983-07-21 14.1 18.9 8.7 7.3-- 1.3 4.3---- 0.0------------
1983-07-20 14.0 21.5 11.3 12.5-- 5.7 4.3---- 5.0------------
1983-07-19 21.6 26.8 18.0 16.5-- 5.3 3.7---- 0.0------------
1983-07-18 21.9 31.0 12.1 9.5-- 2.0 2.0---- 0.1------------
1983-07-17 18.6 23.7 10.1 7.7-- 0.7 0.7---- 0.0------------
1983-07-16 18.6 26.2 11.1 9.5-- 4.0 2.3---- 18.1------------
1983-07-15 18.0 27.6 6.5 2.6-- 2.0 1.3---- 0.0------------
1983-07-14 19.9 24.5 17.0 15.8-- 1.7 3.7---- 0.0------------
1983-07-13 20.8 29.0 13.8 10.7-- 2.7 1.7---- 0.8------------
1983-07-12 22.8 29.2 17.4 15.2-- 3.0 3.7---- 0.0------------
1983-07-11 22.6 30.4 15.5 11.9-- 3.7 2.7---- 0.0------------
1983-07-10 22.2 30.4 12.3 7.9-- 1.0 2.0---- 0.0------------
1983-07-09 20.8 29.0 11.8 8.7-- 1.0 1.3---- 0.0------------
1983-07-08 19.0 27.5 8.3 3.6-- 0.0 1.7---- 0.0------------
1983-07-07 21.3 27.4 13.8 12.5-- 2.0 2.0---- 0.0------------
1983-07-06 21.3 28.8 11.7 7.9-- 1.0 1.7---- 0.0------------
1983-07-05 18.9 25.4 9.3 5.4-- 0.0 1.7---- 0.0------------
1983-07-04 20.2 26.8 13.6 14.5-- 1.3 2.3---- 0.0------------
1983-07-03 19.4 26.0 9.6 5.4-- 0.0 1.0---- 0.0------------
1983-07-02 18.0 23.5 12.7 12.3-- 2.0 1.3---- 0.0------------
1983-07-01 18.7 27.0 11.7 9.3-- 3.0 1.7---- 1.2------------
1983-06-30 18.7 25.0 13.3 10.9-- 0.7 3.0---- 0.0------------
1983-06-29 13.3 19.9 7.3 4.2-- 0.7 3.0---- 0.0------------
1983-06-28 15.4 19.3 13.4 13.1-- 4.7 3.7---- 0.0------------
1983-06-27 16.9 24.7 10.0 8.5-- 4.7 1.7---- 5.7------------
1983-06-26 18.5 25.2 7.2 3.8-- 0.0 2.3---- 0.0------------
1983-06-25 19.7 29.0 8.9 5.0-- 2.7 2.0---- 0.0------------
1983-06-24 18.6 27.2 6.3 2.6-- 0.0 1.7---- 0.0------------
1983-06-23 15.2 25.4 5.7 1.3-- 0.0 1.7---- 0.0------------
1983-06-22 13.5 19.7 6.1 1.1-- 0.0 2.7---- 0.0------------
1983-06-21 16.7 24.5 10.2 7.7-- 0.0 3.3---- 0.0------------
1983-06-20 16.3 25.6 10.1 8.0-- 0.0 1.7---- 0.0------------
1983-06-19 16.8 20.7 12.3 11.5-- 5.3 3.3---- 0.0------------
1983-06-18 12.8 15.5 6.8 10.3-- 7.3 2.7---- 0.0------------
1983-06-17 12.8 18.7 6.8 4.4-- 5.0 2.3---- 0.5------------
1983-06-16 13.0 17.6 9.4 9.3-- 4.7 4.0---- 0.0------------
382.9 ms

 

Źródłem pochodzenia danych jest Instytut Meteorologii i Gospodarki Wodnej – Państwowy Instytut Badawczy. Dane Instytutu Meteorologii i Gospodarki Wodnej – Państwowego Instytutu Badawczego zostały przetworzone.

Dane źródłowe można odnaleźć na stronie https://dane.imgw.pl